sensor_id;sensor_type;location;lat;lon;timestamp;P1;durP1;ratioP1;P2;durP2;ratioP2
44774;SDS011;31340;51.402;0.016;2023-02-28T00:01:33;9.68;;;2.30;;
44774;SDS011;31340;51.402;0.016;2023-02-28T00:04:01;8.23;;;2.25;;
44774;SDS011;31340;51.402;0.016;2023-02-28T00:06:28;9.45;;;2.15;;
44774;SDS011;31340;51.402;0.016;2023-02-28T00:08:56;7.47;;;2.70;;
44774;SDS011;31340;51.402;0.016;2023-02-28T00:11:23;7.88;;;2.42;;
44774;SDS011;31340;51.402;0.016;2023-02-28T00:13:51;9.65;;;2.28;;
44774;SDS011;31340;51.402;0.016;2023-02-28T00:16:20;15.30;;;3.75;;
44774;SDS011;31340;51.402;0.016;2023-02-28T00:18:49;7.93;;;2.88;;
44774;SDS011;31340;51.402;0.016;2023-02-28T00:21:17;13.68;;;3.47;;
44774;SDS011;31340;51.402;0.016;2023-02-28T00:23:47;10.60;;;2.40;;
44774;SDS011;31340;51.402;0.016;2023-02-28T00:26:14;8.15;;;2.38;;
44774;SDS011;31340;51.402;0.016;2023-02-28T00:28:45;6.88;;;2.33;;
44774;SDS011;31340;51.402;0.016;2023-02-28T00:31:13;8.50;;;2.20;;
44774;SDS011;31340;51.402;0.016;2023-02-28T00:33:41;5.00;;;2.35;;
44774;SDS011;31340;51.402;0.016;2023-02-28T00:36:10;8.93;;;2.63;;
44774;SDS011;31340;51.402;0.016;2023-02-28T00:38:38;8.63;;;2.40;;
44774;SDS011;31340;51.402;0.016;2023-02-28T00:41:07;12.60;;;2.33;;
44774;SDS011;31340;51.402;0.016;2023-02-28T00:43:36;8.50;;;2.58;;
44774;SDS011;31340;51.402;0.016;2023-02-28T00:46:05;8.77;;;2.15;;
44774;SDS011;31340;51.402;0.016;2023-02-28T00:48:34;6.03;;;2.35;;
44774;SDS011;31340;51.402;0.016;2023-02-28T00:51:03;9.50;;;2.47;;
44774;SDS011;31340;51.402;0.016;2023-02-28T00:53:31;8.30;;;2.35;;
44774;SDS011;31340;51.402;0.016;2023-02-28T00:56:02;6.18;;;2.60;;
44774;SDS011;31340;51.402;0.016;2023-02-28T00:58:31;9.23;;;2.35;;
44774;SDS011;31340;51.402;0.016;2023-02-28T01:00:58;10.43;;;2.70;;
44774;SDS011;31340;51.402;0.016;2023-02-28T01:03:26;12.98;;;3.30;;
44774;SDS011;31340;51.402;0.016;2023-02-28T01:05:53;16.10;;;2.55;;
44774;SDS011;31340;51.402;0.016;2023-02-28T01:08:21;12.57;;;2.88;;
44774;SDS011;31340;51.402;0.016;2023-02-28T01:10:50;14.45;;;2.72;;
44774;SDS011;31340;51.402;0.016;2023-02-28T01:13:18;7.85;;;2.65;;
44774;SDS011;31340;51.402;0.016;2023-02-28T01:15:49;7.93;;;2.35;;
44774;SDS011;31340;51.402;0.016;2023-02-28T01:18:19;6.10;;;2.40;;
44774;SDS011;31340;51.402;0.016;2023-02-28T01:20:48;6.90;;;2.33;;
44774;SDS011;31340;51.402;0.016;2023-02-28T01:23:16;12.27;;;2.85;;
44774;SDS011;31340;51.402;0.016;2023-02-28T01:25:46;6.53;;;2.22;;
44774;SDS011;31340;51.402;0.016;2023-02-28T01:28:13;10.10;;;2.70;;
44774;SDS011;31340;51.402;0.016;2023-02-28T01:30:41;10.30;;;2.58;;
44774;SDS011;31340;51.402;0.016;2023-02-28T01:33:08;11.85;;;3.30;;
44774;SDS011;31340;51.402;0.016;2023-02-28T01:35:36;12.95;;;3.55;;
44774;SDS011;31340;51.402;0.016;2023-02-28T01:38:05;15.27;;;3.58;;
44774;SDS011;31340;51.402;0.016;2023-02-28T01:40:48;8.10;;;2.90;;
44774;SDS011;31340;51.402;0.016;2023-02-28T01:43:20;13.93;;;3.45;;
44774;SDS011;31340;51.402;0.016;2023-02-28T01:45:48;12.00;;;3.38;;
44774;SDS011;31340;51.402;0.016;2023-02-28T01:48:17;4.90;;;2.60;;
44774;SDS011;31340;51.402;0.016;2023-02-28T01:50:47;9.80;;;3.60;;
44774;SDS011;31340;51.402;0.016;2023-02-28T01:53:18;12.30;;;3.20;;
44774;SDS011;31340;51.402;0.016;2023-02-28T01:55:50;13.73;;;3.65;;
44774;SDS011;31340;51.402;0.016;2023-02-28T01:58:20;11.50;;;2.85;;
44774;SDS011;31340;51.402;0.016;2023-02-28T02:00:48;9.10;;;3.50;;
44774;SDS011;31340;51.402;0.016;2023-02-28T02:03:16;9.20;;;3.22;;
44774;SDS011;31340;51.402;0.016;2023-02-28T02:05:46;8.53;;;2.70;;
44774;SDS011;31340;51.402;0.016;2023-02-28T02:08:18;9.25;;;3.28;;
44774;SDS011;31340;51.402;0.016;2023-02-28T02:10:49;14.98;;;4.35;;
44774;SDS011;31340;51.402;0.016;2023-02-28T02:18:43;11.38;;;3.50;;
44774;SDS011;31340;51.402;0.016;2023-02-28T02:33:23;14.52;;;3.53;;
44774;SDS011;31340;51.402;0.016;2023-02-28T02:36:32;8.05;;;4.15;;
44774;SDS011;31340;51.402;0.016;2023-02-28T02:39:02;14.65;;;4.00;;
44774;SDS011;31340;51.402;0.016;2023-02-28T02:44:30;11.52;;;3.70;;
44774;SDS011;31340;51.402;0.016;2023-02-28T02:47:14;8.95;;;3.25;;
44774;SDS011;31340;51.402;0.016;2023-02-28T02:49:49;9.27;;;4.00;;
44774;SDS011;31340;51.402;0.016;2023-02-28T02:52:20;11.30;;;3.63;;
44774;SDS011;31340;51.402;0.016;2023-02-28T02:54:52;13.43;;;3.85;;
44774;SDS011;31340;51.402;0.016;2023-02-28T02:57:24;15.82;;;4.05;;
44774;SDS011;31340;51.402;0.016;2023-02-28T03:00:02;12.45;;;3.67;;
44774;SDS011;31340;51.402;0.016;2023-02-28T03:02:35;11.15;;;3.40;;
44774;SDS011;31340;51.402;0.016;2023-02-28T03:05:06;9.38;;;3.78;;
44774;SDS011;31340;51.402;0.016;2023-02-28T03:07:41;14.40;;;4.07;;
44774;SDS011;31340;51.402;0.016;2023-02-28T03:21:35;11.13;;;3.50;;
44774;SDS011;31340;51.402;0.016;2023-02-28T03:26:45;13.57;;;4.03;;
44774;SDS011;31340;51.402;0.016;2023-02-28T03:29:25;9.63;;;3.92;;
44774;SDS011;31340;51.402;0.016;2023-02-28T03:34:38;11.10;;;3.88;;
44774;SDS011;31340;51.402;0.016;2023-02-28T03:37:16;17.30;;;4.18;;
44774;SDS011;31340;51.402;0.016;2023-02-28T03:39:53;9.20;;;4.20;;
44774;SDS011;31340;51.402;0.016;2023-02-28T03:42:27;13.98;;;3.95;;
44774;SDS011;31340;51.402;0.016;2023-02-28T03:44:58;10.43;;;3.90;;
44774;SDS011;31340;51.402;0.016;2023-02-28T03:47:39;12.75;;;4.40;;
44774;SDS011;31340;51.402;0.016;2023-02-28T03:50:18;15.07;;;4.18;;
44774;SDS011;31340;51.402;0.016;2023-02-28T03:52:53;9.90;;;3.33;;
44774;SDS011;31340;51.402;0.016;2023-02-28T03:55:33;10.27;;;3.88;;
44774;SDS011;31340;51.402;0.016;2023-02-28T03:58:11;11.13;;;4.05;;
44774;SDS011;31340;51.402;0.016;2023-02-28T04:01:03;13.90;;;3.75;;
44774;SDS011;31340;51.402;0.016;2023-02-28T04:03:37;11.40;;;3.90;;
44774;SDS011;31340;51.402;0.016;2023-02-28T04:06:07;16.38;;;4.72;;
44774;SDS011;31340;51.402;0.016;2023-02-28T04:08:40;15.05;;;3.85;;
44774;SDS011;31340;51.402;0.016;2023-02-28T04:11:18;9.88;;;4.05;;
44774;SDS011;31340;51.402;0.016;2023-02-28T04:13:49;12.43;;;5.13;;
44774;SDS011;31340;51.402;0.016;2023-02-28T04:16:17;16.35;;;4.13;;
44774;SDS011;31340;51.402;0.016;2023-02-28T04:19:01;10.60;;;4.07;;
44774;SDS011;31340;51.402;0.016;2023-02-28T04:21:33;10.05;;;4.15;;
44774;SDS011;31340;51.402;0.016;2023-02-28T04:24:02;11.48;;;4.53;;
44774;SDS011;31340;51.402;0.016;2023-02-28T04:26:31;8.85;;;3.65;;
44774;SDS011;31340;51.402;0.016;2023-02-28T04:29:01;15.57;;;4.25;;
44774;SDS011;31340;51.402;0.016;2023-02-28T04:31:31;11.65;;;4.30;;
44774;SDS011;31340;51.402;0.016;2023-02-28T04:34:00;11.85;;;4.10;;
44774;SDS011;31340;51.402;0.016;2023-02-28T04:36:27;11.38;;;4.38;;
44774;SDS011;31340;51.402;0.016;2023-02-28T04:38:56;10.15;;;4.55;;
44774;SDS011;31340;51.402;0.016;2023-02-28T04:41:23;13.02;;;4.20;;
44774;SDS011;31340;51.402;0.016;2023-02-28T04:43:51;10.43;;;3.92;;
44774;SDS011;31340;51.402;0.016;2023-02-28T04:46:20;14.32;;;5.03;;
44774;SDS011;31340;51.402;0.016;2023-02-28T04:48:48;11.77;;;3.75;;
44774;SDS011;31340;51.402;0.016;2023-02-28T04:51:17;12.45;;;4.40;;
44774;SDS011;31340;51.402;0.016;2023-02-28T04:53:46;13.03;;;4.67;;
44774;SDS011;31340;51.402;0.016;2023-02-28T04:56:15;14.05;;;4.28;;
44774;SDS011;31340;51.402;0.016;2023-02-28T04:58:44;10.45;;;3.80;;
44774;SDS011;31340;51.402;0.016;2023-02-28T05:03:49;11.32;;;4.68;;
44774;SDS011;31340;51.402;0.016;2023-02-28T05:06:18;12.60;;;4.15;;
44774;SDS011;31340;51.402;0.016;2023-02-28T05:08:47;16.13;;;5.05;;
44774;SDS011;31340;51.402;0.016;2023-02-28T05:13:48;15.20;;;4.97;;
44774;SDS011;31340;51.402;0.016;2023-02-28T05:16:17;14.32;;;4.88;;
44774;SDS011;31340;51.402;0.016;2023-02-28T05:18:45;12.55;;;4.00;;
44774;SDS011;31340;51.402;0.016;2023-02-28T05:21:24;13.70;;;4.88;;
44774;SDS011;31340;51.402;0.016;2023-02-28T05:23:52;14.15;;;4.22;;
44774;SDS011;31340;51.402;0.016;2023-02-28T05:26:20;14.80;;;4.50;;
44774;SDS011;31340;51.402;0.016;2023-02-28T05:28:48;12.55;;;4.47;;
44774;SDS011;31340;51.402;0.016;2023-02-28T05:31:16;11.75;;;4.53;;
44774;SDS011;31340;51.402;0.016;2023-02-28T05:33:44;14.82;;;5.03;;
44774;SDS011;31340;51.402;0.016;2023-02-28T05:36:11;11.73;;;4.88;;
44774;SDS011;31340;51.402;0.016;2023-02-28T05:38:39;7.90;;;3.95;;
44774;SDS011;31340;51.402;0.016;2023-02-28T05:41:07;11.75;;;4.53;;
44774;SDS011;31340;51.402;0.016;2023-02-28T05:43:36;14.90;;;4.82;;
44774;SDS011;31340;51.402;0.016;2023-02-28T05:46:08;13.52;;;4.82;;
44774;SDS011;31340;51.402;0.016;2023-02-28T05:48:38;15.05;;;5.50;;
44774;SDS011;31340;51.402;0.016;2023-02-28T05:51:07;13.07;;;5.00;;
44774;SDS011;31340;51.402;0.016;2023-02-28T05:53:35;11.52;;;4.20;;
44774;SDS011;31340;51.402;0.016;2023-02-28T05:56:03;13.90;;;4.53;;
44774;SDS011;31340;51.402;0.016;2023-02-28T05:58:32;11.75;;;4.53;;
44774;SDS011;31340;51.402;0.016;2023-02-28T06:01:00;13.25;;;4.97;;
44774;SDS011;31340;51.402;0.016;2023-02-28T06:03:47;15.30;;;4.65;;
44774;SDS011;31340;51.402;0.016;2023-02-28T06:06:15;11.82;;;4.55;;
44774;SDS011;31340;51.402;0.016;2023-02-28T06:08:43;14.20;;;3.97;;
44774;SDS011;31340;51.402;0.016;2023-02-28T06:11:11;13.75;;;4.55;;
44774;SDS011;31340;51.402;0.016;2023-02-28T06:13:39;8.43;;;4.30;;
44774;SDS011;31340;51.402;0.016;2023-02-28T06:16:08;16.98;;;4.70;;
44774;SDS011;31340;51.402;0.016;2023-02-28T06:18:38;13.80;;;5.40;;
44774;SDS011;31340;51.402;0.016;2023-02-28T06:21:05;11.73;;;5.05;;
44774;SDS011;31340;51.402;0.016;2023-02-28T06:23:33;18.35;;;6.65;;
44774;SDS011;31340;51.402;0.016;2023-02-28T06:26:01;15.43;;;5.65;;
44774;SDS011;31340;51.402;0.016;2023-02-28T06:28:29;16.63;;;5.43;;
44774;SDS011;31340;51.402;0.016;2023-02-28T06:30:56;14.30;;;5.13;;
44774;SDS011;31340;51.402;0.016;2023-02-28T06:33:24;11.43;;;4.95;;
44774;SDS011;31340;51.402;0.016;2023-02-28T06:35:52;14.98;;;5.60;;
44774;SDS011;31340;51.402;0.016;2023-02-28T06:38:20;11.90;;;5.47;;
44774;SDS011;31340;51.402;0.016;2023-02-28T06:40:55;15.73;;;6.20;;
44774;SDS011;31340;51.402;0.016;2023-02-28T06:43:23;16.45;;;6.72;;
44774;SDS011;31340;51.402;0.016;2023-02-28T06:45:54;15.48;;;6.28;;
44774;SDS011;31340;51.402;0.016;2023-02-28T06:50:50;18.58;;;5.97;;
44774;SDS011;31340;51.402;0.016;2023-02-28T06:53:18;15.18;;;6.13;;
44774;SDS011;31340;51.402;0.016;2023-02-28T06:55:45;19.27;;;6.45;;
44774;SDS011;31340;51.402;0.016;2023-02-28T06:58:13;11.40;;;6.45;;
44774;SDS011;31340;51.402;0.016;2023-02-28T07:00:45;17.17;;;7.20;;
44774;SDS011;31340;51.402;0.016;2023-02-28T07:03:17;21.25;;;8.18;;
44774;SDS011;31340;51.402;0.016;2023-02-28T07:05:45;11.93;;;6.85;;
44774;SDS011;31340;51.402;0.016;2023-02-28T07:08:13;12.43;;;6.35;;
44774;SDS011;31340;51.402;0.016;2023-02-28T07:10:40;15.80;;;6.65;;
44774;SDS011;31340;51.402;0.016;2023-02-28T07:13:08;18.33;;;7.47;;
44774;SDS011;31340;51.402;0.016;2023-02-28T07:15:37;20.88;;;6.97;;
44774;SDS011;31340;51.402;0.016;2023-02-28T07:18:09;17.02;;;7.63;;
44774;SDS011;31340;51.402;0.016;2023-02-28T07:20:37;18.45;;;7.60;;
44774;SDS011;31340;51.402;0.016;2023-02-28T07:23:04;16.17;;;7.47;;
44774;SDS011;31340;51.402;0.016;2023-02-28T07:25:31;18.58;;;7.00;;
44774;SDS011;31340;51.402;0.016;2023-02-28T07:27:59;17.13;;;7.18;;
44774;SDS011;31340;51.402;0.016;2023-02-28T07:30:27;16.85;;;7.28;;
44774;SDS011;31340;51.402;0.016;2023-02-28T07:32:54;12.52;;;7.07;;
44774;SDS011;31340;51.402;0.016;2023-02-28T07:35:23;16.05;;;7.32;;
44774;SDS011;31340;51.402;0.016;2023-02-28T07:37:51;16.90;;;8.02;;
44774;SDS011;31340;51.402;0.016;2023-02-28T07:40:19;12.98;;;7.18;;
44774;SDS011;31340;51.402;0.016;2023-02-28T07:42:46;13.40;;;6.80;;
44774;SDS011;31340;51.402;0.016;2023-02-28T07:45:16;14.02;;;6.70;;
44774;SDS011;31340;51.402;0.016;2023-02-28T07:47:44;12.10;;;7.43;;
44774;SDS011;31340;51.402;0.016;2023-02-28T07:50:13;12.80;;;6.95;;
44774;SDS011;31340;51.402;0.016;2023-02-28T07:52:42;13.40;;;7.18;;
44774;SDS011;31340;51.402;0.016;2023-02-28T07:55:09;20.63;;;8.07;;
44774;SDS011;31340;51.402;0.016;2023-02-28T07:57:37;13.32;;;6.35;;
44774;SDS011;31340;51.402;0.016;2023-02-28T08:00:05;14.35;;;6.45;;
44774;SDS011;31340;51.402;0.016;2023-02-28T08:02:40;15.40;;;6.35;;
44774;SDS011;31340;51.402;0.016;2023-02-28T08:05:07;13.05;;;6.07;;
44774;SDS011;31340;51.402;0.016;2023-02-28T08:07:35;13.93;;;5.68;;
44774;SDS011;31340;51.402;0.016;2023-02-28T08:10:03;9.93;;;5.00;;
44774;SDS011;31340;51.402;0.016;2023-02-28T08:12:32;11.82;;;5.85;;
44774;SDS011;31340;51.402;0.016;2023-02-28T08:15:00;12.93;;;5.40;;
44774;SDS011;31340;51.402;0.016;2023-02-28T08:17:27;11.57;;;5.13;;
44774;SDS011;31340;51.402;0.016;2023-02-28T08:19:55;15.35;;;5.03;;
44774;SDS011;31340;51.402;0.016;2023-02-28T08:22:23;7.72;;;5.05;;
44774;SDS011;31340;51.402;0.016;2023-02-28T08:24:50;7.43;;;4.38;;
44774;SDS011;31340;51.402;0.016;2023-02-28T08:27:18;8.30;;;4.80;;
44774;SDS011;31340;51.402;0.016;2023-02-28T08:29:46;12.32;;;4.55;;
44774;SDS011;31340;51.402;0.016;2023-02-28T08:32:13;10.95;;;4.30;;
44774;SDS011;31340;51.402;0.016;2023-02-28T08:34:55;10.20;;;4.90;;
44774;SDS011;31340;51.402;0.016;2023-02-28T08:37:23;9.55;;;4.22;;
44774;SDS011;31340;51.402;0.016;2023-02-28T08:39:51;11.95;;;4.47;;
44774;SDS011;31340;51.402;0.016;2023-02-28T08:42:22;16.20;;;5.00;;
44774;SDS011;31340;51.402;0.016;2023-02-28T08:44:50;12.30;;;5.25;;
44774;SDS011;31340;51.402;0.016;2023-02-28T08:47:18;7.13;;;3.67;;
44774;SDS011;31340;51.402;0.016;2023-02-28T08:49:45;9.55;;;4.80;;
44774;SDS011;31340;51.402;0.016;2023-02-28T08:52:13;17.00;;;4.40;;
44774;SDS011;31340;51.402;0.016;2023-02-28T08:54:44;8.10;;;3.78;;
44774;SDS011;31340;51.402;0.016;2023-02-28T08:57:12;8.05;;;3.42;;
44774;SDS011;31340;51.402;0.016;2023-02-28T08:59:39;10.48;;;4.10;;
44774;SDS011;31340;51.402;0.016;2023-02-28T09:02:08;8.43;;;3.70;;
44774;SDS011;31340;51.402;0.016;2023-02-28T09:04:39;10.57;;;3.17;;
44774;SDS011;31340;51.402;0.016;2023-02-28T09:07:07;7.53;;;3.40;;
44774;SDS011;31340;51.402;0.016;2023-02-28T09:09:34;5.85;;;2.80;;
44774;SDS011;31340;51.402;0.016;2023-02-28T09:12:02;12.40;;;3.22;;
44774;SDS011;31340;51.402;0.016;2023-02-28T09:14:30;10.55;;;2.42;;
44774;SDS011;31340;51.402;0.016;2023-02-28T09:16:57;7.28;;;2.80;;
44774;SDS011;31340;51.402;0.016;2023-02-28T09:19:25;11.32;;;3.55;;
44774;SDS011;31340;51.402;0.016;2023-02-28T09:21:52;7.38;;;2.17;;
44774;SDS011;31340;51.402;0.016;2023-02-28T09:24:20;6.38;;;3.00;;
44774;SDS011;31340;51.402;0.016;2023-02-28T09:26:48;6.50;;;3.17;;
44774;SDS011;31340;51.402;0.016;2023-02-28T09:29:33;6.78;;;2.97;;
44774;SDS011;31340;51.402;0.016;2023-02-28T09:34:29;11.55;;;3.03;;
44774;SDS011;31340;51.402;0.016;2023-02-28T09:36:59;5.75;;;3.00;;
44774;SDS011;31340;51.402;0.016;2023-02-28T09:39:27;6.03;;;2.78;;
44774;SDS011;31340;51.402;0.016;2023-02-28T09:41:55;8.45;;;3.40;;
44774;SDS011;31340;51.402;0.016;2023-02-28T09:44:35;7.47;;;3.30;;
44774;SDS011;31340;51.402;0.016;2023-02-28T09:49:57;5.60;;;3.25;;
44774;SDS011;31340;51.402;0.016;2023-02-28T09:52:30;9.95;;;3.50;;
44774;SDS011;31340;51.402;0.016;2023-02-28T09:55:01;10.05;;;4.00;;
44774;SDS011;31340;51.402;0.016;2023-02-28T09:57:46;7.80;;;3.67;;
44774;SDS011;31340;51.402;0.016;2023-02-28T10:03:40;7.57;;;3.47;;
44774;SDS011;31340;51.402;0.016;2023-02-28T10:06:14;11.80;;;3.80;;
44774;SDS011;31340;51.402;0.016;2023-02-28T10:08:57;8.50;;;3.75;;
44774;SDS011;31340;51.402;0.016;2023-02-28T10:11:25;9.18;;;3.72;;
44774;SDS011;31340;51.402;0.016;2023-02-28T10:16:35;7.63;;;2.60;;
44774;SDS011;31340;51.402;0.016;2023-02-28T10:21:38;12.52;;;2.45;;
44774;SDS011;31340;51.402;0.016;2023-02-28T10:27:00;11.45;;;3.25;;
44774;SDS011;31340;51.402;0.016;2023-02-28T10:29:50;7.18;;;3.15;;
44774;SDS011;31340;51.402;0.016;2023-02-28T10:32:21;11.27;;;3.03;;
44774;SDS011;31340;51.402;0.016;2023-02-28T10:34:53;9.75;;;3.03;;
44774;SDS011;31340;51.402;0.016;2023-02-28T10:37:26;8.43;;;2.67;;
44774;SDS011;31340;51.402;0.016;2023-02-28T10:39:55;6.45;;;3.28;;
44774;SDS011;31340;51.402;0.016;2023-02-28T10:42:25;10.02;;;4.00;;
44774;SDS011;31340;51.402;0.016;2023-02-28T10:47:57;12.80;;;5.40;;
44774;SDS011;31340;51.402;0.016;2023-02-28T10:58:51;6.30;;;3.63;;
44774;SDS011;31340;51.402;0.016;2023-02-28T11:01:43;13.27;;;5.95;;
44774;SDS011;31340;51.402;0.016;2023-02-28T11:04:17;12.52;;;6.00;;
44774;SDS011;31340;51.402;0.016;2023-02-28T11:06:46;10.50;;;5.93;;
44774;SDS011;31340;51.402;0.016;2023-02-28T11:09:25;11.98;;;5.80;;
44774;SDS011;31340;51.402;0.016;2023-02-28T11:11:59;10.15;;;5.03;;
44774;SDS011;31340;51.402;0.016;2023-02-28T11:14:30;8.15;;;3.53;;
44774;SDS011;31340;51.402;0.016;2023-02-28T11:17:03;5.57;;;3.13;;
44774;SDS011;31340;51.402;0.016;2023-02-28T11:19:44;11.18;;;4.00;;
44774;SDS011;31340;51.402;0.016;2023-02-28T11:22:24;17.73;;;7.55;;
44774;SDS011;31340;51.402;0.016;2023-02-28T11:25:01;14.75;;;6.90;;
44774;SDS011;31340;51.402;0.016;2023-02-28T11:27:51;12.02;;;5.43;;
44774;SDS011;31340;51.402;0.016;2023-02-28T11:30:33;16.80;;;7.05;;
44774;SDS011;31340;51.402;0.016;2023-02-28T11:36:12;9.15;;;2.95;;
44774;SDS011;31340;51.402;0.016;2023-02-28T11:38:42;9.27;;;4.60;;
44774;SDS011;31340;51.402;0.016;2023-02-28T11:50:45;6.82;;;2.55;;
44774;SDS011;31340;51.402;0.016;2023-02-28T12:07:21;8.63;;;3.80;;
44774;SDS011;31340;51.402;0.016;2023-02-28T12:20:56;11.55;;;4.43;;
44774;SDS011;31340;51.402;0.016;2023-02-28T12:26:38;8.02;;;3.72;;
44774;SDS011;31340;51.402;0.016;2023-02-28T12:31:40;5.72;;;2.90;;
44774;SDS011;31340;51.402;0.016;2023-02-28T12:34:15;5.50;;;3.25;;
44774;SDS011;31340;51.402;0.016;2023-02-28T12:36:47;4.88;;;2.60;;
44774;SDS011;31340;51.402;0.016;2023-02-28T12:44:32;7.30;;;3.72;;
44774;SDS011;31340;51.402;0.016;2023-02-28T12:47:13;5.93;;;2.85;;
44774;SDS011;31340;51.402;0.016;2023-02-28T12:49:45;4.95;;;2.97;;
44774;SDS011;31340;51.402;0.016;2023-02-28T12:58:20;7.38;;;3.90;;
44774;SDS011;31340;51.402;0.016;2023-02-28T13:09:31;7.85;;;3.35;;
44774;SDS011;31340;51.402;0.016;2023-02-28T13:11:59;6.32;;;2.60;;
44774;SDS011;31340;51.402;0.016;2023-02-28T13:19:39;6.95;;;3.38;;
44774;SDS011;31340;51.402;0.016;2023-02-28T13:22:20;9.13;;;2.67;;
44774;SDS011;31340;51.402;0.016;2023-02-28T13:31:20;4.93;;;2.10;;
44774;SDS011;31340;51.402;0.016;2023-02-28T13:36:27;5.32;;;2.85;;
44774;SDS011;31340;51.402;0.016;2023-02-28T13:38:57;3.97;;;2.38;;
44774;SDS011;31340;51.402;0.016;2023-02-28T13:47:21;3.72;;;1.80;;
44774;SDS011;31340;51.402;0.016;2023-02-28T13:49:29;6.88;;;2.05;;
44774;SDS011;31340;51.402;0.016;2023-02-28T14:00:31;4.15;;;2.22;;
44774;SDS011;31340;51.402;0.016;2023-02-28T14:09:15;4.57;;;2.40;;
44774;SDS011;31340;51.402;0.016;2023-02-28T14:11:51;4.80;;;2.20;;
44774;SDS011;31340;51.402;0.016;2023-02-28T14:17:03;5.00;;;1.92;;
44774;SDS011;31340;51.402;0.016;2023-02-28T14:19:36;5.72;;;2.50;;
44774;SDS011;31340;51.402;0.016;2023-02-28T14:33:38;6.03;;;2.10;;
44774;SDS011;31340;51.402;0.016;2023-02-28T14:36:35;3.72;;;1.88;;
44774;SDS011;31340;51.402;0.016;2023-02-28T14:39:11;7.00;;;2.03;;
44774;SDS011;31340;51.402;0.016;2023-02-28T14:41:42;4.65;;;2.20;;
44774;SDS011;31340;51.402;0.016;2023-02-28T14:46:41;4.45;;;1.88;;
44774;SDS011;31340;51.402;0.016;2023-02-28T14:49:32;4.65;;;2.50;;
44774;SDS011;31340;51.402;0.016;2023-02-28T14:52:47;7.88;;;1.90;;
44774;SDS011;31340;51.402;0.016;2023-02-28T14:54:52;4.95;;;2.03;;
44774;SDS011;31340;51.402;0.016;2023-02-28T14:57:26;4.30;;;2.00;;
44774;SDS011;31340;51.402;0.016;2023-02-28T15:00:15;6.00;;;2.00;;
44774;SDS011;31340;51.402;0.016;2023-02-28T15:02:43;3.88;;;1.67;;
44774;SDS011;31340;51.402;0.016;2023-02-28T15:07:45;3.67;;;1.65;;
44774;SDS011;31340;51.402;0.016;2023-02-28T15:12:52;2.50;;;1.77;;
44774;SDS011;31340;51.402;0.016;2023-02-28T15:15:26;2.97;;;1.48;;
44774;SDS011;31340;51.402;0.016;2023-02-28T15:18:23;6.35;;;1.65;;
44774;SDS011;31340;51.402;0.016;2023-02-28T15:24:00;3.30;;;1.30;;
44774;SDS011;31340;51.402;0.016;2023-02-28T15:26:34;1.50;;;1.33;;
44774;SDS011;31340;51.402;0.016;2023-02-28T15:29:16;3.80;;;1.33;;
44774;SDS011;31340;51.402;0.016;2023-02-28T15:31:50;1.73;;;1.15;;
44774;SDS011;31340;51.402;0.016;2023-02-28T15:34:29;5.00;;;1.20;;
44774;SDS011;31340;51.402;0.016;2023-02-28T15:40:13;6.82;;;1.95;;
44774;SDS011;31340;51.402;0.016;2023-02-28T15:51:08;6.75;;;2.72;;
44774;SDS011;31340;51.402;0.016;2023-02-28T15:56:35;2.60;;;1.60;;
44774;SDS011;31340;51.402;0.016;2023-02-28T15:59:18;5.38;;;1.77;;
44774;SDS011;31340;51.402;0.016;2023-02-28T16:02:11;4.80;;;1.52;;
44774;SDS011;31340;51.402;0.016;2023-02-28T16:04:58;3.17;;;1.58;;
44774;SDS011;31340;51.402;0.016;2023-02-28T16:07:33;4.35;;;1.70;;
44774;SDS011;31340;51.402;0.016;2023-02-28T16:10:03;8.33;;;1.97;;
44774;SDS011;31340;51.402;0.016;2023-02-28T16:12:33;5.30;;;1.98;;
44774;SDS011;31340;51.402;0.016;2023-02-28T16:15:03;2.90;;;1.60;;
44774;SDS011;31340;51.402;0.016;2023-02-28T16:17:37;5.68;;;1.80;;
44774;SDS011;31340;51.402;0.016;2023-02-28T16:20:12;9.30;;;2.60;;
44774;SDS011;31340;51.402;0.016;2023-02-28T16:22:45;4.05;;;2.00;;
44774;SDS011;31340;51.402;0.016;2023-02-28T16:25:13;11.77;;;5.15;;
44774;SDS011;31340;51.402;0.016;2023-02-28T16:27:42;3.72;;;2.55;;
44774;SDS011;31340;51.402;0.016;2023-02-28T16:30:17;3.55;;;2.00;;
44774;SDS011;31340;51.402;0.016;2023-02-28T16:32:48;3.78;;;1.70;;
44774;SDS011;31340;51.402;0.016;2023-02-28T16:35:17;5.55;;;2.50;;
44774;SDS011;31340;51.402;0.016;2023-02-28T16:37:45;5.10;;;2.10;;
44774;SDS011;31340;51.402;0.016;2023-02-28T16:40:18;9.45;;;2.03;;
44774;SDS011;31340;51.402;0.016;2023-02-28T16:42:52;4.55;;;2.03;;
44774;SDS011;31340;51.402;0.016;2023-02-28T16:45:22;2.17;;;1.65;;
44774;SDS011;31340;51.402;0.016;2023-02-28T16:47:52;6.47;;;2.25;;
44774;SDS011;31340;51.402;0.016;2023-02-28T16:50:21;4.65;;;1.75;;
44774;SDS011;31340;51.402;0.016;2023-02-28T16:52:50;2.70;;;1.83;;
44774;SDS011;31340;51.402;0.016;2023-02-28T16:55:25;3.45;;;1.80;;
44774;SDS011;31340;51.402;0.016;2023-02-28T16:57:54;6.30;;;2.05;;
44774;SDS011;31340;51.402;0.016;2023-02-28T17:02:52;6.50;;;2.55;;
44774;SDS011;31340;51.402;0.016;2023-02-28T17:05:23;4.00;;;1.63;;
44774;SDS011;31340;51.402;0.016;2023-02-28T17:07:52;5.43;;;1.92;;
44774;SDS011;31340;51.402;0.016;2023-02-28T17:10:24;6.75;;;2.20;;
44774;SDS011;31340;51.402;0.016;2023-02-28T17:12:53;6.90;;;1.85;;
44774;SDS011;31340;51.402;0.016;2023-02-28T17:15:29;4.50;;;1.50;;
44774;SDS011;31340;51.402;0.016;2023-02-28T17:17:58;2.15;;;0.95;;
44774;SDS011;31340;51.402;0.016;2023-02-28T17:20:26;2.63;;;1.17;;
44774;SDS011;31340;51.402;0.016;2023-02-28T17:22:55;3.47;;;0.98;;
44774;SDS011;31340;51.402;0.016;2023-02-28T17:25:23;4.10;;;1.25;;
44774;SDS011;31340;51.402;0.016;2023-02-28T17:27:51;4.00;;;1.60;;
44774;SDS011;31340;51.402;0.016;2023-02-28T17:30:20;6.07;;;1.27;;
44774;SDS011;31340;51.402;0.016;2023-02-28T17:32:50;3.70;;;1.20;;
44774;SDS011;31340;51.402;0.016;2023-02-28T17:35:17;2.15;;;1.10;;
44774;SDS011;31340;51.402;0.016;2023-02-28T17:37:45;2.50;;;1.50;;
44774;SDS011;31340;51.402;0.016;2023-02-28T17:40:17;2.20;;;1.20;;
44774;SDS011;31340;51.402;0.016;2023-02-28T17:42:46;2.10;;;1.20;;
44774;SDS011;31340;51.402;0.016;2023-02-28T17:45:14;3.20;;;1.55;;
44774;SDS011;31340;51.402;0.016;2023-02-28T17:47:43;2.38;;;1.25;;
44774;SDS011;31340;51.402;0.016;2023-02-28T17:50:14;4.28;;;2.35;;
44774;SDS011;31340;51.402;0.016;2023-02-28T17:52:44;6.85;;;2.55;;
44774;SDS011;31340;51.402;0.016;2023-02-28T17:55:12;5.65;;;1.63;;
44774;SDS011;31340;51.402;0.016;2023-02-28T17:57:39;3.17;;;1.40;;
44774;SDS011;31340;51.402;0.016;2023-02-28T18:00:10;3.60;;;1.63;;
44774;SDS011;31340;51.402;0.016;2023-02-28T18:02:41;2.80;;;1.77;;
44774;SDS011;31340;51.402;0.016;2023-02-28T18:05:09;3.08;;;2.15;;
44774;SDS011;31340;51.402;0.016;2023-02-28T18:07:37;3.10;;;1.70;;
44774;SDS011;31340;51.402;0.016;2023-02-28T18:10:07;3.15;;;1.50;;
44774;SDS011;31340;51.402;0.016;2023-02-28T18:12:42;4.28;;;1.58;;
44774;SDS011;31340;51.402;0.016;2023-02-28T18:15:10;2.50;;;1.48;;
44774;SDS011;31340;51.402;0.016;2023-02-28T18:17:37;2.33;;;1.60;;
44774;SDS011;31340;51.402;0.016;2023-02-28T18:20:04;4.05;;;2.00;;
44774;SDS011;31340;51.402;0.016;2023-02-28T18:22:32;3.88;;;1.70;;
44774;SDS011;31340;51.402;0.016;2023-02-28T18:25:03;4.37;;;1.77;;
44774;SDS011;31340;51.402;0.016;2023-02-28T18:27:31;5.55;;;1.58;;
44774;SDS011;31340;51.402;0.016;2023-02-28T18:29:59;5.28;;;1.60;;
44774;SDS011;31340;51.402;0.016;2023-02-28T18:32:29;4.63;;;1.60;;
44774;SDS011;31340;51.402;0.016;2023-02-28T18:34:57;3.55;;;1.67;;
44774;SDS011;31340;51.402;0.016;2023-02-28T18:37:25;5.28;;;1.80;;